Hlavní strana
METAR-TAF:

METAR-TAF

Letiště :

Brjansk, Rusko

zeměpisná šířka: 53-15N, zeměpisná délka: 034-19E, výška: 217 m

Aktuální stav počasí

Zpráva byla vytvořena před 54 minutami, v 03:00 UTC
Jihojihovýchodní vítr 6 kt
Teplota 2°C
Vlhkost vzduchu 100%
Tlak 1028 hPa
Viditelnost: 0400 m
mlha

METAR: UUBP 180300Z 15003MPS 0400 R16/0400N FG VV002 02/02 Q1028 R16/CLRD70 NOSIG RMK QBB060 QFE753/1004

Čas: 06:54 (03:54 UTC)

Předpověď počasí

Zpráva byla vytvořena před 2 hodinami a 5 minutami, v 01:49 UTC
Předpověď platná od 18 v 03 UTC do 18 v 12 UTC
Jihovýchodní vítr 6 kt
Viditelnost: 3100 m
Oblačno až skoro zataženo ve výšce 500 ft
kouřmo
Dočasný
od 18 v 03 UTC do 18 v 08 UTC
Viditelnost: 0400 m
ve výšce 200 ft
mlha

TAF: UUBP 180149Z 1803/1812 14003MPS 3100 BR BKN005 TEMPO 1803/1808 0400 FG VV002

Stav a předpovědi počasí z více než 4 000 letišť (zprávy METAR a TAF).

Červené a žluté tečky na mapě představují dostupné meteorologické stanice.

Když kurzor umístíte na tečku, zobrazí se název stanice.

Pak kliknutím zobrazíte stav a předpověď počasí.

Chcete-li změnit mapu, kliknutím na zelené tlačítko se znaménkem +mapu přiblížíte, kliknutím na zelené tlačítko se znaménkem – mapu oddálíte a kliknutím na zelené šipky přejdete na sousední mapy.


METAR-TAF: